createdAt,value
2023-05-14T00:01:04.353Z,10.60
2023-05-14T00:06:13.483Z,10.60
2023-05-14T00:11:21.990Z,10.50
2023-05-14T00:16:31.605Z,10.50
2023-05-14T00:21:40.059Z,10.40
2023-05-14T00:26:49.092Z,10.40
2023-05-14T00:31:58.078Z,10.30
2023-05-14T00:37:07.414Z,10.20
2023-05-14T00:42:16.295Z,10.10
2023-05-14T00:47:25.683Z,10.10
2023-05-14T00:52:34.718Z,10.00
2023-05-14T00:57:44.063Z,9.90
2023-05-14T01:02:52.944Z,9.80
2023-05-14T01:08:04.794Z,9.70
2023-05-14T01:13:03.658Z,9.60
2023-05-14T01:18:12.428Z,9.60
2023-05-14T01:23:20.896Z,9.50
2023-05-14T01:28:29.955Z,9.40
2023-05-14T01:33:38.535Z,9.30
2023-05-14T01:38:47.718Z,9.30
2023-05-14T01:43:56.103Z,9.30
2023-05-14T01:49:05.122Z,9.30
2023-05-14T01:54:13.632Z,9.30
2023-05-14T01:59:22.251Z,9.20
2023-05-14T02:04:30.800Z,9.20
2023-05-14T02:09:39.877Z,9.10
2023-05-14T02:14:48.053Z,9.00
2023-05-14T02:19:56.927Z,9.00
2023-05-14T02:25:05.533Z,9.00
2023-05-14T02:30:14.498Z,9.00
2023-05-14T02:35:23.121Z,8.90
2023-05-14T02:40:31.995Z,8.80
2023-05-14T02:45:40.636Z,8.90
2023-05-14T02:50:49.950Z,9.00
2023-05-14T02:55:58.756Z,9.10
2023-05-14T03:01:07.938Z,9.20
2023-05-14T03:06:15.922Z,9.30
2023-05-14T03:11:24.939Z,9.40
2023-05-14T03:16:33.440Z,9.50
2023-05-14T03:21:42.271Z,9.80
2023-05-14T03:26:51.193Z,10.00
2023-05-14T03:31:59.921Z,10.20
2023-05-14T03:37:08.285Z,10.40
2023-05-14T03:42:17.133Z,10.70
2023-05-14T03:47:25.640Z,10.90
2023-05-14T03:52:34.285Z,11.30
2023-05-14T03:57:42.353Z,11.60
2023-05-14T04:02:51.504Z,11.90
2023-05-14T04:08:00.571Z,12.30
2023-05-14T04:13:09.687Z,12.70
2023-05-14T04:18:18.741Z,13.00
2023-05-14T04:23:28.065Z,13.40
2023-05-14T04:28:36.692Z,13.80
2023-05-14T04:33:45.593Z,14.20
2023-05-14T04:38:53.904Z,14.60
2023-05-14T04:44:03.514Z,15.00
2023-05-14T04:49:11.987Z,15.40
2023-05-14T04:54:20.612Z,15.80
2023-05-14T04:59:29.707Z,16.20
2023-05-14T05:04:38.652Z,16.50
2023-05-14T05:09:47.165Z,16.90
2023-05-14T05:14:56.746Z,17.30
2023-05-14T05:20:05.330Z,17.60
2023-05-14T05:25:13.988Z,18.00
2023-05-14T05:30:22.874Z,18.40
2023-05-14T05:35:31.502Z,18.70
2023-05-14T05:50:58.567Z,19.70
2023-05-14T05:56:07.269Z,20.10
2023-05-14T06:01:15.503Z,20.40
2023-05-14T06:06:24.456Z,20.70
2023-05-14T06:11:32.954Z,21.00
2023-05-14T06:16:42.534Z,21.20
2023-05-14T06:21:51.385Z,21.40
2023-05-14T06:27:01.043Z,21.80
2023-05-14T06:32:09.204Z,22.10
2023-05-14T06:37:22.069Z,22.40
2023-05-14T06:42:21.015Z,22.50
2023-05-14T06:47:30.051Z,22.90
2023-05-14T06:52:38.783Z,23.20
2023-05-14T06:57:47.459Z,23.30
2023-05-14T07:02:56.039Z,23.30
2023-05-14T07:08:05.159Z,23.30
2023-05-14T07:13:14.061Z,23.50
2023-05-14T07:18:22.998Z,23.60
2023-05-14T07:23:31.594Z,23.80
2023-05-14T07:28:42.848Z,23.90
2023-05-14T07:33:41.577Z,23.90
2023-05-14T07:38:54.348Z,23.90
2023-05-14T07:43:52.838Z,23.90
2023-05-14T07:49:02.252Z,24.20
2023-05-14T07:54:10.884Z,24.50
2023-05-14T07:59:20.277Z,24.50
2023-05-14T08:04:29.375Z,24.60
2023-05-14T08:09:38.355Z,24.70
2023-05-14T08:14:47.003Z,25.10
2023-05-14T08:19:55.755Z,25.10
2023-05-14T08:25:04.542Z,25.20
2023-05-14T08:30:13.349Z,25.20
2023-05-14T08:35:22.315Z,25.10
2023-05-14T08:40:31.533Z,25.00
2023-05-14T08:45:40.250Z,25.00
2023-05-14T08:50:49.314Z,25.20
2023-05-14T08:55:58.013Z,25.30
2023-05-14T09:01:07.376Z,25.50
2023-05-14T09:06:16.264Z,25.80
2023-05-14T09:11:25.662Z,25.90
2023-05-14T09:16:34.223Z,25.90
2023-05-14T09:21:43.526Z,26.00
2023-05-14T09:26:52.154Z,26.10
2023-05-14T09:32:01.094Z,26.20
2023-05-14T09:37:09.996Z,26.60
2023-05-14T09:42:18.812Z,27.20
2023-05-14T09:47:27.277Z,27.20
2023-05-14T09:52:36.390Z,27.00
2023-05-14T09:57:45.141Z,26.70
2023-05-14T10:02:53.840Z,27.20
2023-05-14T10:08:05.655Z,27.50
2023-05-14T10:13:04.523Z,27.90
2023-05-14T10:18:13.221Z,28.20
2023-05-14T10:23:22.356Z,28.20
2023-05-14T10:28:31.011Z,27.80
2023-05-14T10:33:39.996Z,27.40
2023-05-14T10:38:48.607Z,26.90
2023-05-14T10:43:57.872Z,26.50
2023-05-14T10:49:06.739Z,26.20
2023-05-14T10:54:16.351Z,26.50
2023-05-14T10:59:26.124Z,26.90
2023-05-14T11:04:35.076Z,27.40
2023-05-14T11:09:43.819Z,27.50
2023-05-14T11:14:52.701Z,27.30
2023-05-14T11:20:01.667Z,27.70
2023-05-14T11:25:10.176Z,28.10
2023-05-14T11:30:18.984Z,28.10
2023-05-14T11:35:27.894Z,28.30
2023-05-14T11:40:36.387Z,28.80
2023-05-14T11:45:46.305Z,29.40
2023-05-14T11:50:55.073Z,29.70
2023-05-14T11:56:04.193Z,29.70
2023-05-14T12:01:13.182Z,29.50
2023-05-14T12:06:22.575Z,29.20
2023-05-14T12:11:32.011Z,29.00
2023-05-14T12:16:41.478Z,28.90
2023-05-14T12:21:49.621Z,28.70
2023-05-14T12:26:58.508Z,28.50
2023-05-14T12:32:07.336Z,28.90
2023-05-14T12:37:16.433Z,29.60
2023-05-14T12:42:25.106Z,29.80
2023-05-14T12:47:33.539Z,29.40
2023-05-14T12:52:42.336Z,29.00
2023-05-14T12:57:51.334Z,28.80
2023-05-14T13:02:59.772Z,28.60
2023-05-14T13:08:08.564Z,28.40
2023-05-14T13:13:16.895Z,28.50
2023-05-14T13:18:26.323Z,28.30
2023-05-14T13:23:35.455Z,27.80
2023-05-14T13:28:44.872Z,27.30
2023-05-14T13:33:53.509Z,26.90
2023-05-14T13:39:02.129Z,27.00
2023-05-14T13:44:10.282Z,27.20
2023-05-14T13:49:19.208Z,27.60
2023-05-14T13:54:28.177Z,27.90
2023-05-14T13:59:37.166Z,28.20
2023-05-14T14:04:45.831Z,28.40
2023-05-14T14:09:54.617Z,28.20
2023-05-14T14:15:03.356Z,28.00
2023-05-14T14:20:12.318Z,28.00
2023-05-14T14:25:20.767Z,27.40
2023-05-14T14:30:29.886Z,26.80
2023-05-14T14:35:38.607Z,26.10
2023-05-14T14:40:47.653Z,25.70
2023-05-14T14:45:57.004Z,25.40
2023-05-14T14:51:06.177Z,25.80
2023-05-14T14:56:15.025Z,26.50
2023-05-14T15:01:24.074Z,27.20
2023-05-14T15:06:32.701Z,27.80
2023-05-14T15:11:41.690Z,28.90
2023-05-14T15:16:51.192Z,30.30
2023-05-14T15:21:58.683Z,31.20
2023-05-14T15:27:07.092Z,30.40
2023-05-14T15:32:16.075Z,29.70
2023-05-14T15:37:24.766Z,29.00
2023-05-14T15:42:33.933Z,29.50
2023-05-14T15:47:42.513Z,30.50
2023-05-14T15:52:51.269Z,30.80
2023-05-14T15:58:00.212Z,30.90
2023-05-14T16:03:09.259Z,31.20
2023-05-14T16:08:18.013Z,31.30
2023-05-14T16:13:28.600Z,31.40
2023-05-14T16:18:27.644Z,31.70
2023-05-14T16:23:37.212Z,31.90
2023-05-14T16:28:46.023Z,32.10
2023-05-14T16:33:55.213Z,32.40
2023-05-14T16:39:07.119Z,32.50
2023-05-14T16:44:12.618Z,32.50
2023-05-14T16:49:20.848Z,32.40
2023-05-14T16:54:29.960Z,32.20
2023-05-14T16:59:38.373Z,31.80
2023-05-14T17:04:47.933Z,31.10
2023-05-14T17:09:56.199Z,30.40
2023-05-14T17:15:05.676Z,29.80
2023-05-14T17:20:14.652Z,29.10
2023-05-14T17:25:22.057Z,27.90
2023-05-14T17:30:30.677Z,26.60
2023-05-14T17:35:39.556Z,25.70
2023-05-14T17:40:48.318Z,24.70
2023-05-14T17:45:56.856Z,24.00
2023-05-14T17:51:06.062Z,23.40
2023-05-14T17:56:15.393Z,22.80
2023-05-14T18:01:24.087Z,22.30
2023-05-14T18:06:32.816Z,21.90
2023-05-14T18:11:41.525Z,21.50
2023-05-14T18:16:50.243Z,21.20
2023-05-14T18:21:58.713Z,20.90
2023-05-14T18:27:07.794Z,20.60
2023-05-14T18:32:16.724Z,20.40
2023-05-14T18:37:25.769Z,20.20
2023-05-14T18:42:34.212Z,19.90
2023-05-14T18:47:43.050Z,19.70
2023-05-14T18:52:52.027Z,19.50
2023-05-14T18:58:01.374Z,19.20
2023-05-14T19:03:11.562Z,19.00
2023-05-14T19:08:10.357Z,18.80
2023-05-14T19:13:19.413Z,18.50
2023-05-14T19:23:37.042Z,18.20
2023-05-14T19:33:55.674Z,17.90
2023-05-14T19:59:40.904Z,17.30
2023-05-14T20:04:49.624Z,17.10
2023-05-14T20:09:58.899Z,17.00
2023-05-14T20:15:07.443Z,16.80
2023-05-14T20:20:16.540Z,16.70
2023-05-14T20:25:26.683Z,16.60
2023-05-14T20:30:33.690Z,16.50
2023-05-14T20:35:41.910Z,16.40
2023-05-14T20:40:50.574Z,16.10
2023-05-14T20:45:59.451Z,16.00
2023-05-14T20:51:07.973Z,15.90
2023-05-14T20:56:16.421Z,15.80
2023-05-14T21:01:25.713Z,15.60
2023-05-14T21:06:34.535Z,15.40
2023-05-14T21:11:43.616Z,15.30
2023-05-14T21:16:52.323Z,15.20
2023-05-14T21:22:01.146Z,15.10
2023-05-14T21:27:09.913Z,15.00
2023-05-14T21:32:19.171Z,14.90
2023-05-14T21:37:27.900Z,14.80
2023-05-14T21:42:36.870Z,14.50
2023-05-14T21:47:46.342Z,14.40
2023-05-14T21:52:55.160Z,14.30
2023-05-14T21:58:04.028Z,14.10
2023-05-14T22:03:13.393Z,13.90
2023-05-14T22:08:22.044Z,13.80
2023-05-14T22:13:30.906Z,13.80
2023-05-14T22:18:39.960Z,13.80
2023-05-14T22:23:51.871Z,13.70
2023-05-14T22:28:50.170Z,13.60
2023-05-14T22:33:59.067Z,13.50
2023-05-14T22:39:07.994Z,13.50
2023-05-14T22:44:16.886Z,13.40
2023-05-14T22:49:25.623Z,13.30
2023-05-14T22:54:34.567Z,13.20
2023-05-14T22:59:43.543Z,13.10
2023-05-14T23:04:52.550Z,13.00
2023-05-14T23:10:01.016Z,12.80
2023-05-14T23:15:10.196Z,12.80
2023-05-14T23:20:18.651Z,12.80
2023-05-14T23:25:27.491Z,12.70
2023-05-14T23:30:36.240Z,12.60
2023-05-14T23:35:45.165Z,12.50
2023-05-14T23:40:53.868Z,12.60
2023-05-14T23:46:03.174Z,12.60
2023-05-14T23:51:11.555Z,12.60
2023-05-14T23:56:20.720Z,12.60
